Time;durP1;ratioP1;P1;durP2;ratioP2;P2;SDS_P1;SDS_P2;PMS_P1;PMS_P2;Temp;Humidity;BMP_temperature;BMP_pressure;BME280_temperature;BME280_humidity;BME280_pressure;Samples;Min_cycle;Max_cycle;Signal;HPM_P1;HPM_P2
2022/01/02 00:03:52;;;;;;;6.85;5.47;;;4.00;99.90;;;;;;5704207;23;20224;-72
2022/01/02 01:22:04;;;;;;;4.90;3.63;;;3.50;99.90;;;;;;6231198;22;20484;-76
2022/01/02 01:24:34;;;;;;;5.32;4.40;;;3.50;99.90;;;;;;6248657;23;20527;-75
2022/01/02 01:27:03;;;;;;;6.50;4.43;;;3.60;99.90;;;;;;6250407;23;20176;-76
2022/01/02 01:29:34;;;;;;;5.00;4.43;;;3.60;99.90;;;;;;6249957;23;20196;-76
2022/01/02 01:32:01;;;;;;;4.85;4.10;;;3.60;99.90;;;;;;6250052;23;20160;-76
2022/01/02 01:34:28;;;;;;;4.90;4.20;;;3.50;99.90;;;;;;6250010;23;20195;-76
2022/01/02 01:36:54;;;;;;;5.72;4.28;;;3.50;99.90;;;;;;6250014;23;20179;-76
2022/01/02 01:39:22;;;;;;;5.78;4.57;;;3.50;99.90;;;;;;6250183;23;20175;-76
2022/01/02 01:41:51;;;;;;;4.95;4.45;;;3.50;99.90;;;;;;6249340;23;20551;-76
2022/01/02 01:44:39;;;;;;;4.25;3.85;;;3.50;99.90;;;;;;6259746;22;20637;-76
2022/01/02 01:47:06;;;;;;;5.65;4.20;;;3.50;99.90;;;;;;6250220;23;20218;-76
2022/01/02 01:49:33;;;;;;;6.22;4.15;;;3.50;99.90;;;;;;6249449;23;20222;-76
2022/01/02 01:52:00;;;;;;;6.88;4.05;;;3.50;99.90;;;;;;6249012;23;20668;-76
2022/01/02 01:54:28;;;;;;;5.47;4.53;;;3.50;99.90;;;;;;6249001;23;20267;-76
2022/01/02 01:56:55;;;;;;;6.15;3.63;;;3.40;99.90;;;;;;6242897;23;20176;-76
2022/01/02 01:59:22;;;;;;;5.88;4.22;;;3.40;99.90;;;;;;6243440;23;20249;-76
2022/01/02 02:01:50;;;;;;;4.63;4.22;;;3.30;99.90;;;;;;6242522;23;20176;-76
2022/01/02 02:04:18;;;;;;;5.25;4.07;;;3.30;99.90;;;;;;6242658;23;20204;-76
2022/01/02 02:06:45;;;;;;;4.18;3.72;;;3.20;99.90;;;;;;6243550;23;20172;-76
2022/01/02 02:09:15;;;;;;;4.82;3.88;;;3.20;99.90;;;;;;6244339;22;20209;-71
2022/01/02 02:11:43;;;;;;;5.32;4.18;;;3.10;99.90;;;;;;6243377;23;20161;-71
2022/01/02 02:14:10;;;;;;;5.25;3.90;;;3.10;99.90;;;;;;6244170;23;20272;-71
2022/01/02 02:16:37;;;;;;;4.78;3.92;;;3.10;99.90;;;;;;6244329;23;20540;-74
2022/01/02 02:19:05;;;;;;;5.13;4.32;;;3.00;99.90;;;;;;6244530;23;20510;-74
2022/01/02 02:21:35;;;;;;;4.97;4.15;;;3.00;99.90;;;;;;6243483;23;20212;-74
2022/01/02 02:24:04;;;;;;;4.13;3.72;;;3.00;99.90;;;;;;6253773;23;20197;-74
2022/01/02 02:26:32;;;;;;;5.45;4.10;;;3.00;99.90;;;;;;6243939;23;20176;-74
2022/01/02 02:28:59;;;;;;;5.68;4.15;;;2.90;99.90;;;;;;6254010;23;20169;-74
2022/01/02 02:31:26;;;;;;;4.32;3.50;;;2.90;99.90;;;;;;6243231;23;20630;-71
2022/01/02 02:33:53;;;;;;;4.50;3.70;;;2.90;99.90;;;;;;6244041;23;20188;-72
2022/01/02 02:36:19;;;;;;;7.85;5.05;;;2.80;99.90;;;;;;6243893;23;20172;-72
2022/01/02 02:38:48;;;;;;;5.55;4.32;;;2.80;99.90;;;;;;6244578;23;20259;-72
2022/01/02 02:41:15;;;;;;;4.40;3.72;;;2.80;99.90;;;;;;6243045;23;20172;-71
2022/01/02 02:43:48;;;;;;;4.40;3.72;;;2.80;99.90;;;;;;6244068;23;20295;-72
2022/01/02 02:49:04;;;;;;;4.88;4.05;;;2.70;99.90;;;;;;6243996;23;20621;-71
2022/01/02 02:51:41;;;;;;;5.20;4.05;;;2.70;99.90;;;;;;6243309;23;20168;-72
2022/01/02 02:54:11;;;;;;;5.38;4.70;;;2.70;99.90;;;;;;6244156;23;20192;-72
2022/01/02 02:56:53;;;;;;;5.45;4.40;;;2.70;99.90;;;;;;6243587;23;20256;-71
2022/01/02 02:59:20;;;;;;;6.70;4.55;;;2.70;99.90;;;;;;6245230;23;20161;-72
2022/01/02 03:01:47;;;;;;;5.60;4.70;;;2.70;99.90;;;;;;6245866;23;20276;-71
2022/01/02 03:04:14;;;;;;;4.95;4.45;;;2.70;99.90;;;;;;6245727;23;20192;-71
2022/01/02 03:06:41;;;;;;;6.15;4.30;;;2.70;99.90;;;;;;6245689;23;20655;-71
2022/01/02 03:09:10;;;;;;;5.03;4.10;;;2.70;99.90;;;;;;6246540;23;20173;-71
2022/01/02 03:11:39;;;;;;;6.53;4.45;;;2.70;99.90;;;;;;6243240;23;20161;-71
2022/01/02 03:14:08;;;;;;;5.60;4.22;;;2.70;99.90;;;;;;6253598;23;20188;-71
2022/01/02 03:16:35;;;;;;;6.68;4.70;;;2.70;99.90;;;;;;6243311;23;20264;-73
2022/01/02 03:19:02;;;;;;;5.13;4.10;;;2.70;99.90;;;;;;6253453;23;20165;-73
2022/01/02 03:21:28;;;;;;;4.70;4.13;;;2.70;99.90;;;;;;6242926;23;20183;-74
2022/01/02 03:23:55;;;;;;;5.20;4.40;;;2.70;99.90;;;;;;6243375;23;20658;-74
2022/01/02 03:26:24;;;;;;;4.68;3.95;;;2.70;99.90;;;;;;6243506;23;20200;-74
2022/01/02 03:28:51;;;;;;;5.15;3.90;;;2.70;99.90;;;;;;6243598;23;20196;-74
2022/01/02 03:31:17;;;;;;;4.78;4.28;;;2.70;99.90;;;;;;6243024;23;20199;-74
2022/01/02 03:33:45;;;;;;;4.63;4.22;;;2.60;99.90;;;;;;6253227;23;20211;-74
2022/01/02 03:36:11;;;;;;;4.97;4.00;;;2.60;99.90;;;;;;6243426;23;20655;-74
2022/01/02 03:38:38;;;;;;;4.85;4.07;;;2.60;99.90;;;;;;6243299;23;20183;-74
2022/01/02 03:41:06;;;;;;;7.25;4.15;;;2.60;99.90;;;;;;6242685;23;20223;-74
2022/01/02 03:43:34;;;;;;;5.22;4.65;;;2.60;99.90;;;;;;6243349;23;20685;-74
2022/01/02 03:46:03;;;;;;;5.28;4.78;;;2.70;99.90;;;;;;6243600;23;20174;-72
2022/01/02 03:48:31;;;;;;;5.18;4.20;;;2.70;99.90;;;;;;6243284;23;20559;-72
2022/01/02 03:50:58;;;;;;;6.38;4.97;;;2.70;99.90;;;;;;6242896;23;20505;-72
2022/01/02 03:53:25;;;;;;;4.93;4.10;;;2.70;99.90;;;;;;6243134;23;20279;-71
2022/01/02 03:55:52;;;;;;;6.35;4.50;;;2.70;99.90;;;;;;6243465;23;20255;-71
2022/01/02 03:58:19;;;;;;;6.68;4.07;;;2.60;99.90;;;;;;6243175;23;20272;-71
2022/01/02 04:00:47;;;;;;;6.78;5.43;;;2.60;99.90;;;;;;6253465;23;20513;-72
2022/01/02 04:03:15;;;;;;;5.53;4.85;;;2.60;99.90;;;;;;6242383;23;20267;-72
2022/01/02 04:05:43;;;;;;;6.00;5.18;;;2.50;99.90;;;;;;6243279;23;20203;-72
2022/01/02 04:08:10;;;;;;;9.07;5.18;;;2.50;99.90;;;;;;6252995;23;20168;-72
2022/01/02 04:10:37;;;;;;;9.10;5.68;;;2.50;99.90;;;;;;6242700;23;20259;-71
2022/01/02 04:13:03;;;;;;;5.57;4.60;;;2.50;99.90;;;;;;6242309;23;20179;-72
2022/01/02 04:15:31;;;;;;;6.20;4.88;;;2.40;99.90;;;;;;6243188;23;20172;-72
2022/01/02 04:17:59;;;;;;;16.98;5.95;;;2.40;99.90;;;;;;6242945;23;20255;-72
2022/01/02 04:20:26;;;;;;;7.85;5.05;;;2.40;99.90;;;;;;6243155;23;20179;-72
2022/01/02 04:22:53;;;;;;;7.60;5.95;;;2.40;99.90;;;;;;6242371;23;20183;-72
2022/01/02 04:25:20;;;;;;;7.90;5.63;;;2.40;99.90;;;;;;6242996;23;20198;-72
2022/01/02 04:27:46;;;;;;;9.02;6.05;;;2.50;99.90;;;;;;6243232;23;20172;-72
2022/01/02 04:30:14;;;;;;;6.45;5.65;;;2.40;99.90;;;;;;6242502;23;20183;-72
2022/01/02 04:32:41;;;;;;;6.82;5.95;;;2.40;99.90;;;;;;6242812;23;20173;-72
2022/01/02 04:35:10;;;;;;;9.00;6.47;;;2.40;99.90;;;;;;6243055;23;20188;-72
2022/01/02 04:37:37;;;;;;;7.45;5.63;;;2.40;99.90;;;;;;6243145;23;20564;-72
2022/01/02 04:40:05;;;;;;;7.90;6.50;;;2.40;99.90;;;;;;6243167;23;20263;-72
2022/01/02 04:42:32;;;;;;;7.90;6.13;;;2.40;99.90;;;;;;6242261;23;20571;-72
2022/01/02 04:44:59;;;;;;;6.60;5.95;;;2.40;99.90;;;;;;6252905;23;20184;-72
2022/01/02 04:47:26;;;;;;;7.35;5.68;;;2.40;99.90;;;;;;6242849;23;20569;-72
2022/01/02 04:49:53;;;;;;;7.97;6.03;;;2.40;99.90;;;;;;6243214;23;20238;-72
2022/01/02 04:52:21;;;;;;;6.80;5.10;;;2.50;99.90;;;;;;6242316;23;20689;-72
2022/01/02 04:54:48;;;;;;;7.60;5.78;;;2.50;99.90;;;;;;6242883;23;20263;-72
2022/01/02 04:57:15;;;;;;;7.68;5.93;;;2.50;99.90;;;;;;6242874;23;20279;-72
2022/01/02 04:59:42;;;;;;;7.68;5.60;;;2.50;99.90;;;;;;6243075;23;20260;-72
2022/01/02 05:02:08;;;;;;;7.05;6.35;;;2.50;99.90;;;;;;6242375;23;20264;-72
2022/01/02 05:04:35;;;;;;;7.18;6.38;;;2.50;99.90;;;;;;6242478;23;20275;-72
2022/01/02 05:07:02;;;;;;;10.20;5.82;;;2.50;99.90;;;;;;6252629;23;20171;-72
2022/01/02 05:09:30;;;;;;;8.10;5.50;;;2.50;99.90;;;;;;6242310;23;20188;-72
2022/01/02 05:11:57;;;;;;;6.43;5.40;;;2.50;99.90;;;;;;6242214;23;20216;-72
2022/01/02 05:14:24;;;;;;;6.53;5.80;;;2.50;99.90;;;;;;6242884;23;20283;-72
2022/01/02 05:16:51;;;;;;;6.60;5.60;;;2.60;99.90;;;;;;6242613;23;20176;-72
2022/01/02 05:19:18;;;;;;;6.72;5.85;;;2.60;99.90;;;;;;6242833;23;20506;-72
2022/01/02 05:21:44;;;;;;;6.32;5.28;;;2.70;99.90;;;;;;6242412;23;20177;-72
2022/01/02 05:24:12;;;;;;;7.90;6.47;;;2.70;99.90;;;;;;6242479;23;20197;-72
2022/01/02 05:26:41;;;;;;;9.88;5.75;;;2.70;99.90;;;;;;6242989;23;20176;-72
2022/01/02 05:29:07;;;;;;;6.05;5.45;;;2.70;99.90;;;;;;6242451;23;20177;-72
2022/01/02 05:31:34;;;;;;;5.85;5.05;;;2.80;99.90;;;;;;6243737;23;20183;-72
2022/01/02 05:34:01;;;;;;;8.00;6.20;;;2.70;99.90;;;;;;6244534;23;20193;-72
2022/01/02 05:36:28;;;;;;;6.30;5.53;;;2.70;99.90;;;;;;6244212;23;20263;-72
2022/01/02 05:38:55;;;;;;;7.05;5.60;;;2.70;99.90;;;;;;6244298;23;20179;-72
2022/01/02 05:41:22;;;;;;;7.70;5.57;;;2.80;99.90;;;;;;6243671;23;20194;-72
2022/01/02 05:43:50;;;;;;;6.50;5.63;;;2.70;99.90;;;;;;6244799;23;20227;-72
2022/01/02 05:46:17;;;;;;;7.75;6.03;;;2.80;99.90;;;;;;6244473;23;20196;-72
2022/01/02 05:48:44;;;;;;;9.02;6.53;;;2.80;99.90;;;;;;6244534;23;20183;-72
2022/01/02 05:51:11;;;;;;;8.07;6.65;;;2.80;99.90;;;;;;6244018;23;20179;-73
2022/01/02 05:53:38;;;;;;;7.72;6.35;;;2.80;99.90;;;;;;6244342;23;20199;-72
2022/01/02 05:56:05;;;;;;;7.63;6.65;;;2.90;99.90;;;;;;6244757;23;20168;-72
2022/01/02 05:58:32;;;;;;;9.13;7.20;;;3.00;99.90;;;;;;6244409;23;20172;-72
2022/01/02 06:01:00;;;;;;;9.80;6.95;;;3.00;99.90;;;;;;6243453;23;20200;-72
2022/01/02 06:03:27;;;;;;;11.20;7.18;;;3.00;99.90;;;;;;6244330;23;20192;-73
2022/01/02 06:05:54;;;;;;;7.32;6.63;;;3.00;99.90;;;;;;6254320;23;20184;-72
2022/01/02 06:08:21;;;;;;;7.40;6.70;;;3.00;99.90;;;;;;6244171;23;20932;-73
2022/01/02 06:10:47;;;;;;;8.20;6.43;;;3.00;99.90;;;;;;6244007;23;20271;-72
2022/01/02 06:13:14;;;;;;;8.75;5.88;;;3.10;99.90;;;;;;6243396;23;20700;-72
2022/01/02 06:15:41;;;;;;;6.70;6.03;;;3.10;99.90;;;;;;6244540;23;20169;-72
2022/01/02 06:18:09;;;;;;;7.45;6.72;;;3.10;99.90;;;;;;6243891;23;20176;-72
2022/01/02 06:20:36;;;;;;;7.97;6.40;;;3.10;99.90;;;;;;6253817;23;20168;-72
2022/01/02 06:23:03;;;;;;;7.43;6.70;;;3.20;99.90;;;;;;6253221;23;20175;-72
2022/01/02 06:25:30;;;;;;;6.93;6.15;;;3.20;99.90;;;;;;6244181;23;20199;-72
2022/01/02 06:27:57;;;;;;;7.72;6.45;;;3.20;99.90;;;;;;6244622;23;20172;-72
2022/01/02 06:30:24;;;;;;;7.80;6.65;;;3.20;99.90;;;;;;6244303;23;20186;-72
2022/01/02 06:32:54;;;;;;;7.93;6.68;;;3.30;99.90;;;;;;6243253;23;20260;-72
2022/01/02 06:35:24;;;;;;;9.23;7.32;;;3.30;99.90;;;;;;6244219;23;20195;-72
2022/01/02 06:37:52;;;;;;;9.85;6.20;;;3.30;99.90;;;;;;6243649;23;20179;-72
2022/01/02 06:40:19;;;;;;;6.50;5.80;;;3.20;99.90;;;;;;6244246;23;20183;-72
2022/01/02 06:42:46;;;;;;;6.25;5.55;;;3.20;99.90;;;;;;6243105;23;20633;-72
2022/01/02 06:45:13;;;;;;;8.60;6.80;;;3.20;99.90;;;;;;6243363;23;20211;-72
2022/01/02 06:47:40;;;;;;;7.10;6.40;;;3.20;99.90;;;;;;6252977;23;20247;-72
2022/01/02 06:50:08;;;;;;;7.50;5.43;;;3.20;99.90;;;;;;6242844;23;20574;-72
2022/01/02 06:52:36;;;;;;;6.28;5.68;;;3.20;99.90;;;;;;6242734;23;20578;-72
2022/01/02 06:55:04;;;;;;;4.10;3.70;;;3.30;99.90;;;;;;6242181;23;20413;-72
2022/01/02 06:57:30;;;;;;;3.70;3.25;;;3.50;99.90;;;;;;6242161;23;20179;-72
2022/01/02 06:59:57;;;;;;;3.17;2.88;;;4.00;99.90;;;;;;6242104;23;20263;-72
2022/01/02 07:02:24;;;;;;;3.65;2.78;;;4.40;99.90;;;;;;6241523;23;20965;-72
2022/01/02 07:04:51;;;;;;;2.30;2.13;;;4.90;99.90;;;;;;6243222;23;20206;-73
2022/01/02 07:07:18;;;;;;;2.05;1.85;;;5.40;99.90;;;;;;6243195;23;20182;-72
2022/01/02 07:09:46;;;;;;;2.67;2.30;;;5.70;99.90;;;;;;6253268;23;20204;-72
2022/01/02 07:12:13;;;;;;;2.40;2.20;;;5.90;99.90;;;;;;6241842;23;20172;-72
2022/01/02 07:14:40;;;;;;;3.47;2.50;;;6.10;99.90;;;;;;6243799;23;20520;-72
2022/01/02 07:17:06;;;;;;;2.40;2.20;;;6.30;99.90;;;;;;6242560;23;20179;-72
2022/01/02 07:19:33;;;;;;;2.00;1.80;;;6.40;99.90;;;;;;6242204;23;20172;-73
2022/01/02 07:22:00;;;;;;;2.65;2.33;;;6.50;99.90;;;;;;6241528;23;20173;-72
2022/01/02 07:24:28;;;;;;;2.50;2.30;;;6.70;99.90;;;;;;6242444;23;20255;-73
2022/01/02 07:26:56;;;;;;;5.00;2.53;;;6.80;99.90;;;;;;6241955;23;20219;-73
2022/01/02 07:29:22;;;;;;;3.00;2.50;;;6.90;99.90;;;;;;6241892;23;20256;-73
2022/01/02 07:31:49;;;;;;;2.50;2.20;;;7.00;99.90;;;;;;6241289;23;20177;-73
2022/01/02 07:34:16;;;;;;;2.80;2.50;;;7.10;99.90;;;;;;6241740;23;20198;-73
2022/01/02 07:36:45;;;;;;;3.72;2.83;;;7.30;99.90;;;;;;6242204;23;20168;-73
2022/01/02 07:39:13;;;;;;;2.10;1.90;;;7.30;99.90;;;;;;6242153;23;20172;-72
2022/01/02 07:41:40;;;;;;;2.13;1.98;;;7.40;99.90;;;;;;6241639;23;20226;-72
2022/01/02 07:44:09;;;;;;;3.20;2.90;;;7.50;99.90;;;;;;6241465;23;20419;-74
2022/01/02 07:46:35;;;;;;;2.95;2.50;;;7.60;99.90;;;;;;6243199;23;20192;-74
2022/01/02 07:49:02;;;;;;;2.05;1.92;;;7.70;99.90;;;;;;6242796;23;20176;-74
2022/01/02 07:51:29;;;;;;;3.25;2.30;;;7.80;99.90;;;;;;6252648;23;20508;-74
2022/01/02 07:53:56;;;;;;;2.05;1.83;;;7.80;99.90;;;;;;6243108;23;20650;-74
2022/01/02 07:56:24;;;;;;;4.25;2.63;;;7.90;99.90;;;;;;6243380;23;20230;-74
2022/01/02 07:58:51;;;;;;;2.63;2.05;;;8.00;99.90;;;;;;6243326;23;20200;-74
2022/01/02 08:01:20;;;;;;;3.25;2.20;;;8.10;99.90;;;;;;6252631;23;20425;-74
2022/01/02 08:03:47;;;;;;;2.35;2.13;;;8.20;99.90;;;;;;6242661;23;20219;-75
2022/01/02 08:06:14;;;;;;;2.55;2.35;;;8.40;99.90;;;;;;6242766;23;20684;-74
2022/01/02 08:08:41;;;;;;;2.50;2.00;;;8.40;99.90;;;;;;6242039;23;20176;-74
2022/01/02 08:11:08;;;;;;;2.50;1.98;;;8.50;99.90;;;;;;6262323;22;20251;-95
2022/01/02 08:16:37;;;;;;;2.78;2.30;;;8.60;99.90;;;;;;6267985;22;20184;-93
2022/01/02 08:19:08;;;;;;;2.97;2.17;;;8.70;99.90;;;;;;6263927;23;20168;-93
2022/01/02 08:21:39;;;;;;;1.80;1.55;;;8.80;99.90;;;;;;6261693;23;20172;-91
2022/01/02 08:24:08;;;;;;;2.97;1.90;;;9.00;99.90;;;;;;6268205;23;20223;-92
2022/01/02 08:26:35;;;;;;;1.98;1.75;;;9.20;99.90;;;;;;6263506;23;20640;-93
2022/01/02 08:29:02;;;;;;;2.05;1.67;;;9.50;99.90;;;;;;6266566;23;20195;-95
2022/01/02 08:31:30;;;;;;;2.42;2.15;;;9.80;99.90;;;;;;6271388;23;20255;-92
2022/01/02 08:33:59;;;;;;;2.30;1.90;;;10.30;99.90;;;;;;6264922;23;20176;-93
2022/01/02 08:36:32;;;;;;;2.50;2.08;;;10.60;99.90;;;;;;6249771;23;20172;-92
2022/01/02 08:42:08;;;;;;;2.13;1.92;;;10.80;99.90;;;;;;6196812;22;20164;-92
2022/01/02 08:44:37;;;;;;;3.47;2.00;;;10.60;99.90;;;;;;6245227;22;20203;-73
2022/01/02 08:47:04;;;;;;;1.70;1.60;;;10.60;99.90;;;;;;6248956;23;20749;-72
2022/01/02 08:49:33;;;;;;;3.17;1.98;;;10.60;99.90;;;;;;6250062;23;20168;-71
2022/01/02 08:52:00;;;;;;;1.98;1.83;;;10.90;99.90;;;;;;6241890;23;20250;-71
2022/01/02 08:54:27;;;;;;;4.03;2.22;;;11.10;99.90;;;;;;6251728;23;20574;-71
2022/01/02 08:56:55;;;;;;;2.17;1.98;;;11.10;99.90;;;;;;6242159;23;20192;-71
2022/01/02 08:59:24;;;;;;;2.15;1.70;;;11.00;99.90;;;;;;6241482;23;20203;-71
2022/01/02 09:01:54;;;;;;;2.90;1.90;;;10.90;99.90;;;;;;6241194;23;20203;-71
2022/01/02 09:04:22;;;;;;;1.88;1.70;;;10.80;99.90;;;;;;6250892;23;20188;-71
2022/01/02 09:06:50;;;;;;;2.30;1.70;;;10.80;99.90;;;;;;6253882;23;20173;-71
2022/01/02 09:09:17;;;;;;;2.00;1.60;;;10.90;99.90;;;;;;6244600;23;20200;-71
2022/01/02 09:11:44;;;;;;;1.92;1.73;;;11.00;99.90;;;;;;6244275;23;20486;-71
2022/01/02 09:14:11;;;;;;;2.15;1.65;;;11.30;99.90;;;;;;6254612;23;20536;-71
2022/01/02 09:16:39;;;;;;;2.75;2.03;;;11.50;99.90;;;;;;6244389;23;20169;-71
2022/01/02 09:19:06;;;;;;;2.25;2.05;;;11.80;99.90;;;;;;6244567;23;20172;-71
2022/01/02 09:21:33;;;;;;;2.30;1.45;;;12.00;99.90;;;;;;6244126;23;20179;-71
2022/01/02 09:24:01;;;;;;;1.83;1.65;;;12.20;99.90;;;;;;6244722;23;20199;-71
2022/01/02 09:26:28;;;;;;;2.05;1.85;;;12.50;99.90;;;;;;6237085;23;20196;-71
2022/01/02 09:28:55;;;;;;;2.20;1.85;;;12.80;99.90;;;;;;6237733;23;20173;-71
2022/01/02 09:31:22;;;;;;;2.50;2.10;;;12.80;99.90;;;;;;6241603;23;20183;-71
2022/01/02 09:33:49;;;;;;;6.30;2.10;;;12.70;99.90;;;;;;6244079;23;20199;-71
2022/01/02 09:36:16;;;;;;;2.50;2.00;;;12.40;99.90;;;;;;6244901;23;20170;-73
2022/01/02 09:38:43;;;;;;;2.28;2.08;;;12.30;99.90;;;;;;6243523;23;20176;-72
2022/01/02 09:41:11;;;;;;;2.83;1.90;;;12.20;99.90;;;;;;6244715;23;20218;-71
2022/01/02 09:43:38;;;;;;;1.98;1.83;;;12.00;99.90;;;;;;6244451;23;20208;-71
2022/01/02 09:46:05;;;;;;;3.08;1.98;;;11.80;99.90;;;;;;6257718;23;20638;-71
2022/01/02 09:48:33;;;;;;;2.33;2.00;;;11.60;99.90;;;;;;6248040;23;20505;-71
2022/01/02 09:51:01;;;;;;;2.22;1.63;;;11.50;99.90;;;;;;6244546;23;20204;-71
2022/01/02 09:53:27;;;;;;;3.55;1.83;;;11.30;99.90;;;;;;6242698;23;20262;-71
2022/01/02 09:55:54;;;;;;;3.05;1.98;;;11.30;99.90;;;;;;6241545;23;20183;-72
2022/01/02 09:58:23;;;;;;;2.10;1.90;;;11.20;99.90;;;;;;6243044;23;20177;-71
2022/01/02 10:00:52;;;;;;;2.50;2.25;;;11.20;99.90;;;;;;6242218;23;20173;-71
2022/01/02 10:03:19;;;;;;;3.50;2.35;;;11.10;99.90;;;;;;6242524;23;20196;-71
2022/01/02 10:05:52;;;;;;;3.72;2.33;;;11.00;99.90;;;;;;6242627;23;20270;-70
2022/01/02 10:08:24;;;;;;;2.35;2.15;;;11.00;99.90;;;;;;6242907;23;20183;-70
2022/01/02 10:11:00;;;;;;;1.90;1.80;;;11.10;99.90;;;;;;6241761;23;20252;-70
2022/01/02 10:13:50;;;;;;;2.40;1.90;;;11.30;99.90;;;;;;6242364;23;20690;-70
2022/01/02 10:16:29;;;;;;;2.30;2.10;;;11.50;99.90;;;;;;6234339;23;20172;-71
2022/01/02 10:18:56;;;;;;;2.85;2.15;;;11.60;99.90;;;;;;6242644;23;20156;-71
2022/01/02 10:21:31;;;;;;;2.50;1.70;;;11.70;99.90;;;;;;6241720;23;20172;-71
2022/01/02 10:24:21;;;;;;;2.00;1.67;;;11.90;99.90;;;;;;6242335;23;21027;-71
2022/01/02 10:27:05;;;;;;;3.00;1.85;;;12.00;99.90;;;;;;6242533;23;20188;-71
2022/01/02 10:29:43;;;;;;;2.03;1.65;;;11.90;99.90;;;;;;6242086;23;20161;-70
2022/01/02 10:32:33;;;;;;;2.58;2.15;;;11.80;99.90;;;;;;6240812;23;20235;-70
2022/01/02 10:35:17;;;;;;;2.90;2.20;;;11.60;99.90;;;;;;6252189;23;20653;-70
2022/01/02 10:37:49;;;;;;;3.38;2.60;;;11.40;99.90;;;;;;6242471;23;20153;-70
2022/01/02 10:40:32;;;;;;;2.75;2.40;;;11.40;99.90;;;;;;6242006;23;20161;-70
2022/01/02 10:43:00;;;;;;;3.63;2.90;;;11.40;99.90;;;;;;6241551;23;20187;-71
2022/01/02 10:45:34;;;;;;;4.10;3.70;;;11.30;99.90;;;;;;6242304;23;20240;-70
2022/01/02 10:48:01;;;;;;;4.97;4.25;;;11.20;99.90;;;;;;6240545;23;20668;-70
2022/01/02 10:50:28;;;;;;;4.63;4.22;;;11.00;99.90;;;;;;6242275;23;20179;-70
2022/01/02 10:52:55;;;;;;;4.50;4.10;;;11.00;99.90;;;;;;6251272;23;20176;-71
2022/01/02 10:55:23;;;;;;;3.92;3.60;;;10.90;99.90;;;;;;6242252;23;20180;-70
2022/01/02 10:57:51;;;;;;;3.70;3.40;;;10.80;99.90;;;;;;6242949;23;20175;-71
2022/01/02 11:00:20;;;;;;;3.92;3.53;;;10.70;99.90;;;;;;6243326;23;20199;-70
2022/01/02 11:02:48;;;;;;;4.38;2.15;;;10.70;99.90;;;;;;6241074;23;20487;-70
2022/01/02 11:05:16;;;;;;;2.55;1.90;;;10.80;99.90;;;;;;6240818;23;20681;-70
2022/01/02 11:07:45;;;;;;;2.40;1.90;;;10.90;99.90;;;;;;6240045;23;20275;-70
2022/01/02 11:10:14;;;;;;;2.13;1.50;;;11.20;99.90;;;;;;6242030;23;20182;-70
2022/01/02 11:12:42;;;;;;;1.90;1.30;;;11.40;99.90;;;;;;6241413;23;20173;-70
2022/01/02 11:15:12;;;;;;;1.80;1.30;;;11.60;99.90;;;;;;6242026;23;20528;-70
2022/01/02 11:17:39;;;;;;;2.45;1.50;;;11.70;99.90;;;;;;6241308;23;20259;-70
2022/01/02 11:20:10;;;;;;;1.95;1.67;;;11.80;99.90;;;;;;6242474;23;20179;-70
2022/01/02 11:22:42;;;;;;;2.13;1.80;;;11.90;99.90;;;;;;6241111;23;20165;-70
2022/01/02 11:25:15;;;;;;;1.60;1.50;;;12.00;99.90;;;;;;6241849;23;20193;-70
2022/01/02 11:27:47;;;;;;;1.95;1.75;;;12.00;99.90;;;;;;6240786;23;20185;-70
2022/01/02 11:30:50;;;;;;;2.17;1.80;;;12.00;99.90;;;;;;6241728;23;20157;-70
2022/01/02 11:33:19;;;;;;;2.10;1.80;;;12.00;99.90;;;;;;6118936;23;20202;-70
2022/01/02 11:35:49;;;;;;;2.35;1.70;;;12.00;99.90;;;;;;6119230;23;20199;-70
2022/01/02 11:38:19;;;;;;;1.65;1.55;;;12.00;99.90;;;;;;6179782;23;20645;-70
2022/01/02 11:40:49;;;;;;;3.03;1.70;;;12.00;99.90;;;;;;6242613;23;20176;-72
2022/01/02 11:43:53;;;;;;;1.73;1.63;;;12.00;99.90;;;;;;6241332;23;20204;-71
2022/01/02 11:46:22;;;;;;;1.90;1.50;;;12.10;99.90;;;;;;6240721;23;20231;-71
2022/01/02 11:49:15;;;;;;;1.90;1.70;;;12.10;99.90;;;;;;6240747;23;20176;-71
2022/01/02 11:52:08;;;;;;;2.10;1.90;;;12.10;99.90;;;;;;6239030;23;20184;-70
2022/01/02 11:54:50;;;;;;;2.22;1.85;;;12.10;99.90;;;;;;6240852;23;20196;-71
2022/01/02 11:57:46;;;;;;;4.35;1.45;;;12.10;99.90;;;;;;6241502;23;20153;-71
2022/01/02 12:00:32;;;;;;;2.03;1.70;;;12.10;99.90;;;;;;6241295;23;20248;-70
2022/01/02 12:02:59;;;;;;;1.75;1.55;;;12.10;99.90;;;;;;6241066;23;20161;-72
2022/01/02 12:05:26;;;;;;;1.77;1.67;;;12.10;99.90;;;;;;6241381;23;20177;-70
2022/01/02 12:07:58;;;;;;;2.47;1.83;;;12.10;99.90;;;;;;6241324;23;20196;-70
2022/01/02 12:10:28;;;;;;;3.08;1.83;;;12.10;99.90;;;;;;6240340;23;20157;-71
2022/01/02 12:13:16;;;;;;;2.05;1.63;;;12.20;99.90;;;;;;6240169;23;20180;-71
2022/01/02 12:16:09;;;;;;;1.85;1.60;;;12.30;99.90;;;;;;6241188;23;20629;-70
2022/01/02 12:18:57;;;;;;;2.25;1.67;;;12.60;99.90;;;;;;6240258;23;20506;-70
2022/01/02 12:21:24;;;;;;;2.83;1.88;;;13.10;99.90;;;;;;6240423;23;20558;-71
2022/01/02 12:23:54;;;;;;;1.70;1.42;;;13.30;99.90;;;;;;6240642;23;20697;-71
2022/01/02 12:26:27;;;;;;;1.95;1.50;;;13.40;99.90;;;;;;6241606;23;20242;-70
2022/01/02 12:28:57;;;;;;;1.73;1.60;;;13.50;99.90;;;;;;6241037;23;20157;-70
2022/01/02 12:31:28;;;;;;;1.40;1.30;;;13.70;99.90;;;;;;6240745;23;20496;-71
2022/01/02 12:33:58;;;;;;;2.15;1.50;;;13.80;99.50;;;;;;6241153;23;20443;-71
2022/01/02 12:36:25;;;;;;;2.90;1.70;;;14.00;99.90;;;;;;6241481;23;20169;-70
2022/01/02 12:38:55;;;;;;;1.60;1.40;;;14.30;99.40;;;;;;6251124;23;20469;-70
2022/01/02 12:41:24;;;;;;;2.03;1.47;;;14.70;98.60;;;;;;6239766;23;20411;-71
2022/01/02 12:43:52;;;;;;;1.80;1.50;;;15.00;98.60;;;;;;6240068;23;20458;-71
2022/01/02 12:46:40;;;;;;;2.33;1.87;;;15.40;98.00;;;;;;6240074;23;20942;-71
2022/01/02 12:49:09;;;;;;;1.80;1.50;;;15.80;97.70;;;;;;6241349;23;20403;-70
2022/01/02 12:51:38;;;;;;;2.80;1.87;;;16.10;97.40;;;;;;6240300;23;20415;-70
2022/01/02 12:54:08;;;;;;;2.60;1.70;;;16.10;97.50;;;;;;6240853;23;20443;-70
2022/01/02 12:56:40;;;;;;;2.90;1.67;;;16.10;97.40;;;;;;6250539;23;20427;-70
2022/01/02 12:59:18;;;;;;;2.87;1.80;;;16.30;97.60;;;;;;6240945;23;20404;-71
2022/01/02 13:01:50;;;;;;;3.40;2.07;;;16.50;97.40;;;;;;6240778;23;20731;-71
2022/01/02 13:04:18;;;;;;;1.97;1.40;;;16.40;96.90;;;;;;6240479;23;20450;-71
2022/01/02 13:06:46;;;;;;;1.90;1.70;;;16.10;97.30;;;;;;6250835;23;20798;-71
2022/01/02 13:09:22;;;;;;;1.90;1.70;;;15.90;97.50;;;;;;6241453;23;20477;-71
2022/01/02 13:11:49;;;;;;;2.20;2.00;;;15.80;97.50;;;;;;6240541;23;20410;-70
2022/01/02 13:14:33;;;;;;;2.67;1.97;;;15.80;97.70;;;;;;6240765;23;20848;-71
2022/01/02 13:17:01;;;;;;;2.03;1.80;;;15.80;97.10;;;;;;6240962;23;20474;-71
2022/01/02 13:19:30;;;;;;;3.00;1.93;;;15.70;97.00;;;;;;6240695;23;20423;-71
2022/01/02 13:21:57;;;;;;;3.83;1.63;;;15.50;97.00;;;;;;6240671;23;20499;-70
2022/01/02 13:24:27;;;;;;;1.93;1.73;;;15.30;97.20;;;;;;6240228;23;20447;-71
2022/01/02 13:26:55;;;;;;;3.17;2.13;;;15.30;97.40;;;;;;6241134;23;20441;-71
2022/01/02 13:29:23;;;;;;;2.83;1.77;;;15.30;97.70;;;;;;6240594;23;20481;-71
2022/01/02 13:31:51;;;;;;;2.30;1.70;;;15.40;96.90;;;;;;6240575;23;20419;-71
2022/01/02 13:34:26;;;;;;;2.90;1.60;;;15.40;96.90;;;;;;6240515;23;20446;-70
2022/01/02 13:37:00;;;;;;;1.73;1.63;;;15.10;97.40;;;;;;6241060;23;20395;-70
2022/01/02 13:39:43;;;;;;;2.42;2.00;;;14.90;97.20;;;;;;6240293;23;20438;-72
2022/01/02 13:42:10;;;;;;;2.70;1.97;;;14.70;97.20;;;;;;6239956;23;20168;-72
2022/01/02 13:44:42;;;;;;;3.53;1.70;;;14.60;98.00;;;;;;6240302;23;20513;-72
2022/01/02 13:47:09;;;;;;;2.47;1.70;;;14.50;98.00;;;;;;6240792;23;20955;-72
2022/01/02 13:49:43;;;;;;;1.97;1.70;;;14.40;97.90;;;;;;6241096;23;20419;-72
2022/01/02 13:52:10;;;;;;;2.00;1.83;;;14.40;98.40;;;;;;6252031;23;20473;-73
2022/01/02 13:54:38;;;;;;;2.10;1.80;;;14.40;98.40;;;;;;6242597;23;20442;-72
2022/01/02 13:57:07;;;;;;;2.53;1.93;;;14.30;98.50;;;;;;6243307;23;20175;-72
2022/01/02 13:59:34;;;;;;;2.67;2.10;;;14.10;98.60;;;;;;6243172;23;20514;-73
2022/01/02 14:02:01;;;;;;;2.70;2.00;;;14.10;98.90;;;;;;6242736;23;20488;-73
2022/01/02 14:04:28;;;;;;;3.53;2.20;;;14.00;99.00;;;;;;6242306;23;20521;-73
2022/01/02 14:06:55;;;;;;;3.00;2.30;;;14.00;99.30;;;;;;6252420;23;20475;-72
2022/01/02 14:09:22;;;;;;;1.90;1.70;;;13.90;99.20;;;;;;6242800;23;20423;-72
2022/01/02 14:15:02;;;;;;;1.90;1.80;;;13.80;99.50;;;;;;6250490;23;20407;-89
2022/01/02 14:23:12;;;;;;;2.05;1.80;;;13.70;99.90;;;;;;6251550;23;20411;-89
2022/01/02 14:25:58;;;;;;;2.50;2.15;;;13.70;99.90;;;;;;6264888;23;20184;-89
2022/01/02 14:28:28;;;;;;;2.10;1.90;;;13.60;99.90;;;;;;6264702;23;20195;-91
2022/01/02 14:31:26;;;;;;;3.10;2.00;;;13.50;99.90;;;;;;6265489;23;20195;-90
2022/01/02 14:33:53;;;;;;;3.90;2.00;;;13.50;99.90;;;;;;6263791;23;20425;-90
2022/01/02 14:36:32;;;;;;;2.60;2.25;;;13.50;99.90;;;;;;6262433;23;20247;-90
2022/01/02 14:39:07;;;;;;;3.20;2.08;;;13.50;99.90;;;;;;6263601;23;20188;-90
2022/01/02 14:44:32;;;;;;;2.00;1.90;;;13.40;99.90;;;;;;6251613;23;20168;-90